createdAt,value
2018-12-21T00:00:27.692Z,54.50
2018-12-21T00:02:56.245Z,54.50
2018-12-21T00:05:24.808Z,54.50
2018-12-21T00:07:54.157Z,54.50
2018-12-21T00:10:22.728Z,54.50
2018-12-21T00:12:51.284Z,54.50
2018-12-21T00:15:19.864Z,54.50
2018-12-21T00:17:48.412Z,55.10
2018-12-21T00:20:17.013Z,54.50
2018-12-21T00:22:45.576Z,54.50
2018-12-21T00:25:14.143Z,54.50
2018-12-21T00:27:42.716Z,54.50
2018-12-21T00:30:11.880Z,54.50
2018-12-21T00:32:45.628Z,54.50
2018-12-21T00:35:19.388Z,54.50
2018-12-21T00:37:53.301Z,54.50
2018-12-21T00:40:27.431Z,54.60
2018-12-21T00:43:01.263Z,54.60
2018-12-21T00:45:33.837Z,54.50
2018-12-21T00:48:02.810Z,54.60
2018-12-21T00:50:31.370Z,54.60
2018-12-21T00:52:59.953Z,54.60
2018-12-21T00:55:28.509Z,54.70
2018-12-21T00:57:57.389Z,54.70
2018-12-21T01:00:26.538Z,54.60
2018-12-21T01:02:55.227Z,54.70
2018-12-21T01:05:23.828Z,54.70
2018-12-21T01:07:52.387Z,54.70
2018-12-21T01:10:20.961Z,54.70
2018-12-21T01:12:49.563Z,54.70
2018-12-21T01:15:18.163Z,54.70
2018-12-21T01:17:46.872Z,54.70
2018-12-21T01:20:15.486Z,54.70
2018-12-21T01:22:44.380Z,54.70
2018-12-21T01:25:13.073Z,55.30
2018-12-21T01:27:41.675Z,54.80
2018-12-21T01:30:10.497Z,54.80
2018-12-21T01:32:39.065Z,54.80
2018-12-21T01:35:07.714Z,54.80
2018-12-21T01:37:36.281Z,54.80
2018-12-21T01:40:05.052Z,54.80
2018-12-21T01:42:33.633Z,54.90
2018-12-21T01:45:02.192Z,54.80
2018-12-21T01:47:30.757Z,54.90
2018-12-21T01:49:59.336Z,54.80
2018-12-21T01:52:27.888Z,54.90
2018-12-21T01:54:56.432Z,54.90
2018-12-21T01:57:25.017Z,54.90
2018-12-21T01:59:53.580Z,54.80
2018-12-21T02:02:22.146Z,54.90
2018-12-21T02:04:50.730Z,54.90
2018-12-21T02:07:19.287Z,54.90
2018-12-21T02:09:47.852Z,54.90
2018-12-21T02:12:16.432Z,54.90
2018-12-21T02:14:45.028Z,54.90
2018-12-21T02:17:13.599Z,54.90
2018-12-21T02:19:42.187Z,55.50
2018-12-21T02:22:10.744Z,54.90
2018-12-21T02:24:39.313Z,55.00
2018-12-21T02:27:07.858Z,54.90
2018-12-21T02:29:36.452Z,54.90
2018-12-21T02:32:05.042Z,55.00
2018-12-21T02:34:33.625Z,54.90
2018-12-21T02:37:02.192Z,54.90
2018-12-21T02:39:30.885Z,55.00
2018-12-21T02:41:59.500Z,54.90
2018-12-21T02:44:28.088Z,54.90
2018-12-21T02:46:58.606Z,54.90
2018-12-21T02:49:27.169Z,54.90
2018-12-21T02:52:05.216Z,54.90
2018-12-21T02:54:26.317Z,54.90
2018-12-21T02:56:54.972Z,54.90
2018-12-21T02:59:23.537Z,54.90
2018-12-21T03:01:52.099Z,54.90
2018-12-21T03:04:20.673Z,54.90
2018-12-21T03:06:49.257Z,54.90
2018-12-21T03:09:17.961Z,54.90
2018-12-21T03:11:46.666Z,54.80
2018-12-21T03:14:18.200Z,54.90
2018-12-21T03:16:46.773Z,54.90
2018-12-21T03:19:15.364Z,55.00
2018-12-21T03:21:43.922Z,55.00
2018-12-21T03:24:12.494Z,55.00
2018-12-21T03:26:41.072Z,54.90
2018-12-21T03:29:09.596Z,54.90
2018-12-21T03:31:38.217Z,55.00
2018-12-21T03:34:06.791Z,54.90
2018-12-21T03:36:35.502Z,54.90
2018-12-21T03:39:07.134Z,54.90
2018-12-21T03:41:36.625Z,55.00
2018-12-21T03:44:05.235Z,55.00
2018-12-21T03:46:33.837Z,54.90
2018-12-21T03:49:04.176Z,54.90
2018-12-21T03:51:32.776Z,54.90
2018-12-21T03:54:01.576Z,54.90
2018-12-21T03:56:30.143Z,55.00
2018-12-21T03:58:58.744Z,54.90
2018-12-21T04:01:27.300Z,55.30
2018-12-21T04:03:55.857Z,54.90
2018-12-21T04:06:24.749Z,55.50
2018-12-21T04:08:53.496Z,55.00
2018-12-21T04:11:22.128Z,54.90
2018-12-21T04:13:51.217Z,54.90
2018-12-21T04:16:19.840Z,54.90
2018-12-21T04:18:48.404Z,54.90
2018-12-21T04:21:16.985Z,55.00
2018-12-21T04:23:45.545Z,54.90
2018-12-21T04:26:14.250Z,54.90
2018-12-21T04:28:42.824Z,54.90
2018-12-21T04:31:11.424Z,54.90
2018-12-21T04:33:39.992Z,54.90
2018-12-21T04:36:08.642Z,55.30
2018-12-21T04:38:37.323Z,54.90
2018-12-21T04:41:05.912Z,54.90
2018-12-21T04:43:34.492Z,54.90
2018-12-21T04:46:03.096Z,54.90
2018-12-21T04:48:31.661Z,54.80
2018-12-21T04:51:00.237Z,54.80
2018-12-21T04:53:28.797Z,54.80
2018-12-21T04:55:57.386Z,54.80
2018-12-21T04:58:25.950Z,54.90
2018-12-21T05:00:54.516Z,54.80
2018-12-21T05:03:23.102Z,54.90
2018-12-21T05:05:51.676Z,54.80
2018-12-21T05:08:20.277Z,54.80
2018-12-21T05:10:48.833Z,54.80
2018-12-21T05:13:17.380Z,55.50
2018-12-21T05:15:45.974Z,54.80
2018-12-21T05:18:14.561Z,54.80
2018-12-21T05:20:43.190Z,54.90
2018-12-21T05:23:11.752Z,54.90
2018-12-21T05:25:40.313Z,54.90
2018-12-21T05:28:08.878Z,55.50
2018-12-21T05:30:37.601Z,54.90
2018-12-21T05:33:06.168Z,54.90
2018-12-21T05:35:34.733Z,54.90
2018-12-21T05:38:03.313Z,54.90
2018-12-21T05:40:31.921Z,54.90
2018-12-21T05:43:00.496Z,54.90
2018-12-21T05:45:29.072Z,54.90
2018-12-21T05:47:57.644Z,54.90
2018-12-21T05:50:26.188Z,54.90
2018-12-21T05:53:00.724Z,54.90
2018-12-21T05:55:25.358Z,54.90
2018-12-21T05:57:53.933Z,54.80
2018-12-21T06:00:22.526Z,54.80
2018-12-21T06:02:51.037Z,54.90
2018-12-21T06:05:19.992Z,54.90
2018-12-21T06:07:50.508Z,54.90
2018-12-21T06:10:19.070Z,54.90
2018-12-21T06:12:47.649Z,54.80
2018-12-21T06:15:16.208Z,54.80
2018-12-21T06:17:44.765Z,55.00
2018-12-21T06:20:13.308Z,54.80
2018-12-21T06:22:42.005Z,54.80
2018-12-21T06:25:10.587Z,54.80
2018-12-21T06:27:39.273Z,54.90
2018-12-21T06:30:08.240Z,54.80
2018-12-21T06:32:36.819Z,54.80
2018-12-21T06:35:05.672Z,54.90
2018-12-21T06:37:34.235Z,54.90
2018-12-21T06:40:02.870Z,54.80
2018-12-21T06:42:31.424Z,54.80
2018-12-21T06:45:00.035Z,55.40
2018-12-21T06:47:28.624Z,54.80
2018-12-21T06:49:57.180Z,54.80
2018-12-21T06:52:26.492Z,54.90
2018-12-21T06:54:55.068Z,54.80
2018-12-21T06:57:23.623Z,54.80
2018-12-21T06:59:52.212Z,54.80
2018-12-21T07:02:20.776Z,54.80
2018-12-21T07:04:49.334Z,54.80
2018-12-21T07:07:17.917Z,54.70
2018-12-21T07:09:46.593Z,54.80
2018-12-21T07:12:15.165Z,54.80
2018-12-21T07:14:43.746Z,54.80
2018-12-21T07:17:12.311Z,54.80
2018-12-21T07:19:40.886Z,54.80
2018-12-21T07:22:09.860Z,54.80
2018-12-21T07:24:38.407Z,54.80
2018-12-21T07:27:06.999Z,54.80
2018-12-21T07:29:35.549Z,54.80
2018-12-21T07:32:04.113Z,54.80
2018-12-21T07:34:32.756Z,55.10
2018-12-21T07:37:01.326Z,54.80
2018-12-21T07:39:31.137Z,54.80
2018-12-21T07:42:00.561Z,54.80
2018-12-21T07:44:29.118Z,54.80
2018-12-21T07:46:57.680Z,54.90
2018-12-21T07:49:26.292Z,54.90
2018-12-21T07:51:54.937Z,55.30
2018-12-21T07:54:23.617Z,54.90
2018-12-21T07:56:54.381Z,54.90
2018-12-21T07:59:29.646Z,54.90
2018-12-21T08:01:58.208Z,55.00
2018-12-21T08:04:26.769Z,55.00
2018-12-21T08:06:55.369Z,55.00
2018-12-21T08:09:24.185Z,55.10
2018-12-21T08:11:52.832Z,55.10
2018-12-21T08:14:21.498Z,55.00
2018-12-21T08:16:50.176Z,55.10
2018-12-21T08:19:18.737Z,55.10
2018-12-21T08:21:47.337Z,55.10
2018-12-21T08:24:15.903Z,55.10
2018-12-21T08:26:44.466Z,55.10
2018-12-21T08:29:13.164Z,55.20
2018-12-21T08:31:42.085Z,55.20
2018-12-21T08:34:10.653Z,55.20
2018-12-21T08:36:39.396Z,55.30
2018-12-21T08:39:08.205Z,55.30
2018-12-21T08:41:36.786Z,55.30
2018-12-21T08:44:05.367Z,55.40
2018-12-21T08:46:33.926Z,55.40
2018-12-21T08:49:02.517Z,55.40
2018-12-21T08:51:31.069Z,56.10
2018-12-21T08:53:59.625Z,55.60
2018-12-21T08:56:28.216Z,55.50
2018-12-21T08:58:56.804Z,55.60
2018-12-21T09:01:25.397Z,55.60
2018-12-21T09:03:53.981Z,55.60
2018-12-21T09:06:22.550Z,55.70
2018-12-21T09:08:51.149Z,55.70
2018-12-21T09:11:19.713Z,55.70
2018-12-21T09:13:48.404Z,55.70
2018-12-21T09:16:17.446Z,55.60
2018-12-21T09:18:45.997Z,55.60
2018-12-21T09:21:14.577Z,55.70
2018-12-21T09:23:43.133Z,55.60
2018-12-21T09:26:11.693Z,55.60
2018-12-21T09:28:40.281Z,55.60
2018-12-21T09:31:08.863Z,55.60
2018-12-21T09:33:37.420Z,55.60
2018-12-21T09:36:06.004Z,55.60
2018-12-21T09:38:34.587Z,55.60
2018-12-21T09:41:03.191Z,55.60
2018-12-21T09:43:31.760Z,55.60
2018-12-21T09:46:00.345Z,55.60
2018-12-21T09:48:28.909Z,55.70
2018-12-21T09:50:57.472Z,55.70
2018-12-21T09:53:26.065Z,55.70
2018-12-21T09:55:54.621Z,55.70
2018-12-21T09:58:23.185Z,55.70
2018-12-21T10:00:51.852Z,55.80
2018-12-21T10:03:20.414Z,55.80
2018-12-21T10:05:49.004Z,55.80
2018-12-21T10:08:17.565Z,55.80
2018-12-21T10:10:46.164Z,55.80
2018-12-21T10:13:15.698Z,55.80
2018-12-21T10:15:44.271Z,55.80
2018-12-21T10:18:12.875Z,55.80
2018-12-21T10:20:41.445Z,55.80
2018-12-21T10:23:10.125Z,55.80
2018-12-21T10:25:38.698Z,55.80
2018-12-21T10:28:07.256Z,55.80
2018-12-21T10:30:35.890Z,55.80
2018-12-21T10:33:04.473Z,55.80
2018-12-21T10:35:33.030Z,55.80
2018-12-21T10:38:02.196Z,55.80
2018-12-21T10:40:31.004Z,55.90
2018-12-21T10:42:59.577Z,55.90
2018-12-21T10:45:28.180Z,55.80
2018-12-21T10:47:56.758Z,55.90
2018-12-21T10:50:25.333Z,55.90
2018-12-21T10:52:53.921Z,56.00
2018-12-21T10:55:22.489Z,56.10
2018-12-21T10:57:51.095Z,56.10
2018-12-21T11:00:19.753Z,56.50
2018-12-21T11:02:48.304Z,56.20
2018-12-21T11:05:16.921Z,56.30
2018-12-21T11:07:45.480Z,56.30
2018-12-21T11:10:28.157Z,56.90
2018-12-21T11:12:57.127Z,56.30
2018-12-21T11:15:25.692Z,56.80
2018-12-21T11:17:54.260Z,56.30
2018-12-21T11:20:22.857Z,56.30
2018-12-21T11:22:51.418Z,56.40
2018-12-21T11:25:19.977Z,55.90
2018-12-21T11:27:48.568Z,56.40
2018-12-21T11:30:17.143Z,56.40
2018-12-21T11:32:45.732Z,56.30
2018-12-21T11:35:14.296Z,56.40
2018-12-21T11:37:42.880Z,56.40
2018-12-21T11:40:11.489Z,56.40
2018-12-21T11:42:40.145Z,56.40
2018-12-21T11:45:09.837Z,56.40
2018-12-21T11:47:38.480Z,56.40
2018-12-21T11:50:09.649Z,56.40
2018-12-21T11:52:38.648Z,56.40
2018-12-21T11:55:07.460Z,56.40
2018-12-21T11:57:36.024Z,56.40
2018-12-21T12:00:05.370Z,56.50
2018-12-21T12:02:34.276Z,56.50
2018-12-21T12:05:03.193Z,56.40
2018-12-21T12:07:31.953Z,56.40
2018-12-21T12:10:00.520Z,56.40
2018-12-21T12:12:29.112Z,56.40
2018-12-21T12:14:57.698Z,56.40
2018-12-21T12:17:26.278Z,56.50
2018-12-21T12:19:54.861Z,56.50
2018-12-21T12:22:23.383Z,56.50
2018-12-21T12:24:52.862Z,56.50
2018-12-21T12:27:21.884Z,56.60
2018-12-21T12:29:50.448Z,56.50
2018-12-21T12:32:19.034Z,56.70
2018-12-21T12:34:47.605Z,56.90
2018-12-21T12:37:16.178Z,57.20
2018-12-21T12:39:44.752Z,56.60
2018-12-21T12:42:13.346Z,56.50
2018-12-21T12:44:41.957Z,56.50
2018-12-21T12:47:10.508Z,56.50
2018-12-21T12:49:39.090Z,56.50
2018-12-21T12:52:07.666Z,56.50
2018-12-21T12:54:36.228Z,56.40
2018-12-21T12:57:05.076Z,56.40
2018-12-21T12:59:33.680Z,56.40
2018-12-21T13:02:02.246Z,56.40
2018-12-21T13:04:33.715Z,56.30
2018-12-21T13:07:02.325Z,56.30
2018-12-21T13:09:30.914Z,56.30
2018-12-21T13:11:59.484Z,56.30
2018-12-21T13:14:28.074Z,56.20
2018-12-21T13:16:56.633Z,56.20
2018-12-21T13:19:25.247Z,56.20
2018-12-21T13:21:53.824Z,56.20
2018-12-21T13:24:22.391Z,56.30
2018-12-21T13:26:50.977Z,56.20
2018-12-21T13:29:19.541Z,56.20
2018-12-21T13:31:48.154Z,56.20
2018-12-21T13:34:16.733Z,56.20
2018-12-21T13:36:45.330Z,56.20
2018-12-21T13:39:13.900Z,56.10
2018-12-21T13:41:42.572Z,56.10
2018-12-21T13:44:11.136Z,56.10
2018-12-21T13:46:39.716Z,56.10
2018-12-21T13:49:08.281Z,56.00
2018-12-21T13:51:37.008Z,56.10
2018-12-21T13:54:05.830Z,56.00
2018-12-21T13:56:34.416Z,56.00
2018-12-21T13:59:02.992Z,56.00
2018-12-21T14:01:31.592Z,55.90
2018-12-21T14:04:00.179Z,55.90
2018-12-21T14:06:28.761Z,56.20
2018-12-21T14:08:57.365Z,55.90
2018-12-21T14:11:25.937Z,55.90
2018-12-21T14:13:54.512Z,55.90
2018-12-21T14:16:23.100Z,56.40
2018-12-21T14:18:51.696Z,55.70
2018-12-21T14:21:20.247Z,55.70
2018-12-21T14:23:48.849Z,55.80
2018-12-21T14:26:17.405Z,55.70
2018-12-21T14:28:45.977Z,55.70
2018-12-21T14:31:14.571Z,55.70
2018-12-21T14:33:43.708Z,55.70
2018-12-21T14:36:12.287Z,55.70
2018-12-21T14:38:40.860Z,55.70
2018-12-21T14:41:09.431Z,55.60
2018-12-21T14:43:38.032Z,55.70
2018-12-21T14:46:06.637Z,55.60
2018-12-21T14:48:35.250Z,55.70
2018-12-21T14:51:03.873Z,55.60
2018-12-21T14:53:32.445Z,55.60
2018-12-21T14:56:01.023Z,55.60
2018-12-21T14:58:29.629Z,55.60
2018-12-21T15:00:58.204Z,55.50
2018-12-21T15:03:26.812Z,55.80
2018-12-21T15:05:55.389Z,55.50
2018-12-21T15:08:23.953Z,55.50
2018-12-21T15:10:52.557Z,55.50
2018-12-21T15:13:21.123Z,55.40
2018-12-21T15:15:49.693Z,55.50
2018-12-21T15:18:18.662Z,55.40
2018-12-21T15:20:47.246Z,55.40
2018-12-21T15:23:15.846Z,55.40
2018-12-21T15:25:46.145Z,55.40
2018-12-21T15:28:15.050Z,55.40
2018-12-21T15:30:43.640Z,55.40
2018-12-21T15:33:12.214Z,55.30
2018-12-21T15:35:40.805Z,55.30
2018-12-21T15:38:09.373Z,55.30
2018-12-21T15:40:37.966Z,55.20
2018-12-21T15:43:06.960Z,55.20
2018-12-21T15:45:35.484Z,55.20
2018-12-21T15:48:04.113Z,55.10
2018-12-21T15:50:32.687Z,55.10
2018-12-21T15:53:01.281Z,55.10
2018-12-21T15:55:29.873Z,55.10
2018-12-21T15:57:59.533Z,55.00
2018-12-21T16:00:28.225Z,55.10
2018-12-21T16:02:57.945Z,55.10
2018-12-21T16:05:26.664Z,55.00
2018-12-21T16:07:55.417Z,55.00
2018-12-21T16:10:24.025Z,55.00
2018-12-21T16:12:52.582Z,54.90
2018-12-21T16:15:21.182Z,54.90
2018-12-21T16:17:49.704Z,54.90
2018-12-21T16:20:18.310Z,54.90
2018-12-21T16:22:46.896Z,54.80
2018-12-21T16:25:15.481Z,54.90
2018-12-21T16:27:44.054Z,54.80
2018-12-21T16:30:13.064Z,54.80
2018-12-21T16:32:41.744Z,54.80
2018-12-21T16:35:10.337Z,54.70
2018-12-21T16:37:38.908Z,54.70
2018-12-21T16:40:09.339Z,54.70
2018-12-21T16:42:38.060Z,54.70
2018-12-21T16:45:08.962Z,54.60
2018-12-21T16:47:37.669Z,54.60
2018-12-21T16:50:10.044Z,54.70
2018-12-21T16:52:38.647Z,54.50
2018-12-21T16:55:07.637Z,54.50
2018-12-21T16:57:36.205Z,54.50
2018-12-21T17:00:08.500Z,54.60
2018-12-21T17:02:37.090Z,54.50
2018-12-21T17:05:06.181Z,54.50
2018-12-21T17:07:34.783Z,54.50
2018-12-21T17:10:03.725Z,54.50
2018-12-21T17:12:32.306Z,54.60
2018-12-21T17:15:00.894Z,54.50
2018-12-21T17:17:29.453Z,54.50
2018-12-21T17:19:58.142Z,54.50
2018-12-21T17:22:26.730Z,54.50
2018-12-21T17:24:55.291Z,54.50
2018-12-21T17:27:23.848Z,54.50
2018-12-21T17:29:52.440Z,54.50
2018-12-21T17:32:21.028Z,54.50
2018-12-21T17:34:49.605Z,54.50
2018-12-21T17:37:18.225Z,54.60
2018-12-21T17:39:46.778Z,54.50
2018-12-21T17:42:15.362Z,54.60
2018-12-21T17:44:44.057Z,54.60
2018-12-21T17:47:12.632Z,54.60
2018-12-21T17:49:41.572Z,54.70
2018-12-21T17:52:10.349Z,54.70
2018-12-21T17:54:38.919Z,54.60
2018-12-21T17:57:07.501Z,54.70
2018-12-21T17:59:36.069Z,54.70
2018-12-21T18:02:04.650Z,54.70
2018-12-21T18:04:33.226Z,54.80
2018-12-21T18:07:01.781Z,54.80
2018-12-21T18:09:33.196Z,54.80
2018-12-21T18:12:01.816Z,54.80
2018-12-21T18:14:30.372Z,54.80
2018-12-21T18:16:59.529Z,54.90
2018-12-21T18:19:28.449Z,54.90
2018-12-21T18:22:01.629Z,55.00
2018-12-21T18:24:30.229Z,55.00
2018-12-21T18:26:58.892Z,55.00
2018-12-21T18:29:28.073Z,55.00
2018-12-21T18:33:10.102Z,55.10
2018-12-21T18:35:31.866Z,55.70
2018-12-21T18:38:02.693Z,55.00
2018-12-21T18:40:32.161Z,55.00
2018-12-21T18:43:00.756Z,55.10
2018-12-21T18:45:29.364Z,55.10
2018-12-21T18:47:57.964Z,55.20
2018-12-21T18:50:27.526Z,55.20
2018-12-21T18:52:56.116Z,55.20
2018-12-21T18:55:24.694Z,55.30
2018-12-21T18:57:53.260Z,55.30
2018-12-21T19:00:22.014Z,55.20
2018-12-21T19:02:50.568Z,55.30
2018-12-21T19:05:19.141Z,55.20
2018-12-21T19:07:47.745Z,55.30
2018-12-21T19:10:16.317Z,55.30
2018-12-21T19:12:45.838Z,55.40
2018-12-21T19:15:14.405Z,55.40
2018-12-21T19:17:43.307Z,55.40
2018-12-21T19:20:12.552Z,55.40
2018-12-21T19:22:41.289Z,55.40
2018-12-21T19:25:11.052Z,55.50
2018-12-21T19:27:39.626Z,55.50
2018-12-21T19:30:11.192Z,55.50
2018-12-21T19:32:41.316Z,55.60
2018-12-21T19:35:10.728Z,55.50
2018-12-21T19:37:39.286Z,55.50
2018-12-21T19:40:10.460Z,55.60
2018-12-21T19:42:39.444Z,55.70
2018-12-21T19:45:11.409Z,55.60
2018-12-21T19:47:40.006Z,55.60
2018-12-21T19:50:09.884Z,55.60
2018-12-21T19:52:38.609Z,55.70
2018-12-21T19:55:15.860Z,55.70
2018-12-21T19:57:44.458Z,55.70
2018-12-21T20:00:13.025Z,55.70
2018-12-21T20:02:41.590Z,55.70
2018-12-21T20:05:10.169Z,55.60
2018-12-21T20:07:38.734Z,55.70
2018-12-21T20:10:08.113Z,55.70
2018-12-21T20:12:36.697Z,55.70
2018-12-21T20:15:06.069Z,55.70
2018-12-21T20:17:34.628Z,55.70
2018-12-21T20:20:03.714Z,55.70
2018-12-21T20:22:32.300Z,55.70
2018-12-21T20:25:01.706Z,56.00
2018-12-21T20:27:30.277Z,55.70
2018-12-21T20:29:58.869Z,56.50
2018-12-21T20:32:27.708Z,55.70
2018-12-21T20:34:56.273Z,55.80
2018-12-21T20:37:24.866Z,55.80
2018-12-21T20:39:53.433Z,55.80
2018-12-21T20:42:22.004Z,55.80
2018-12-21T20:44:50.574Z,55.80
2018-12-21T20:47:19.365Z,55.90
2018-12-21T20:49:47.951Z,55.90
2018-12-21T20:52:16.532Z,55.90
2018-12-21T20:54:45.081Z,55.90
2018-12-21T20:57:21.800Z,56.40
2018-12-21T20:59:45.661Z,55.90
2018-12-21T21:02:14.277Z,56.00
2018-12-21T21:04:42.971Z,55.80
2018-12-21T21:07:11.532Z,55.80
2018-12-21T21:09:40.071Z,55.80
2018-12-21T21:12:08.666Z,55.90
2018-12-21T21:14:37.218Z,55.90
2018-12-21T21:17:05.795Z,55.90
2018-12-21T21:19:37.404Z,56.00
2018-12-21T21:22:06.217Z,56.00
2018-12-21T21:24:34.779Z,56.00
2018-12-21T21:27:03.378Z,56.00
2018-12-21T21:29:31.957Z,56.00
2018-12-21T21:32:00.630Z,56.00
2018-12-21T21:34:29.289Z,56.00
2018-12-21T21:36:57.860Z,56.10
2018-12-21T21:39:26.453Z,56.00
2018-12-21T21:41:55.028Z,56.00
2018-12-21T21:44:23.609Z,56.00
2018-12-21T21:46:52.205Z,56.00
2018-12-21T21:49:20.772Z,56.00
2018-12-21T21:51:50.265Z,56.10
2018-12-21T21:54:18.820Z,56.10
2018-12-21T21:56:47.382Z,56.10
2018-12-21T21:59:15.968Z,56.10
2018-12-21T22:01:44.535Z,56.10
2018-12-21T22:04:13.128Z,56.10
2018-12-21T22:06:41.720Z,56.10
2018-12-21T22:09:10.304Z,56.20
2018-12-21T22:11:38.884Z,56.20
2018-12-21T22:14:07.495Z,56.10
2018-12-21T22:16:36.059Z,56.20
2018-12-21T22:19:04.632Z,56.20
2018-12-21T22:21:33.224Z,56.20
2018-12-21T22:24:01.795Z,56.20
2018-12-21T22:26:30.393Z,56.20
2018-12-21T22:28:58.948Z,56.20
2018-12-21T22:31:27.521Z,56.20
2018-12-21T22:33:56.102Z,56.60
2018-12-21T22:36:24.661Z,56.20
2018-12-21T22:38:53.258Z,56.20
2018-12-21T22:41:21.829Z,56.20
2018-12-21T22:43:50.395Z,56.20
2018-12-21T22:46:18.969Z,56.30
2018-12-21T22:48:47.616Z,56.30
2018-12-21T22:51:16.213Z,56.30
2018-12-21T22:53:44.777Z,56.40
2018-12-21T22:56:13.337Z,56.30
2018-12-21T22:58:41.916Z,55.90
2018-12-21T23:01:10.817Z,56.30
2018-12-21T23:03:39.451Z,56.40
2018-12-21T23:06:08.041Z,56.40
2018-12-21T23:08:36.622Z,56.40
2018-12-21T23:11:05.263Z,56.40
2018-12-21T23:13:33.838Z,56.40
2018-12-21T23:16:02.432Z,57.00
2018-12-21T23:18:31.001Z,56.40
2018-12-21T23:20:59.596Z,56.40
2018-12-21T23:23:28.195Z,56.50
2018-12-21T23:25:56.742Z,56.40
2018-12-21T23:28:25.300Z,56.50
2018-12-21T23:30:53.875Z,56.40
2018-12-21T23:33:22.457Z,56.50
2018-12-21T23:35:51.017Z,56.50
2018-12-21T23:38:19.572Z,56.50
2018-12-21T23:40:48.165Z,56.50
2018-12-21T23:43:17.224Z,57.20
2018-12-21T23:45:45.804Z,56.50
2018-12-21T23:48:14.357Z,56.50
2018-12-21T23:50:42.937Z,56.50
2018-12-21T23:53:11.727Z,56.50
2018-12-21T23:55:40.283Z,56.50
2018-12-21T23:58:13.676Z,56.50
